Szafir — 5BFC3 — position and weather

sailwx.info

Track history (hours):
 
Tides and Currents Weather Stations Pressure Air Temp Water Temp Dewpoint Dewpoint Depression Visibility Wind Speed Wind Dir Waves Ship Positions

Szafir

Last reported at 2016-May-25 14:33 UTC. Time now 2016-May-27 02:15 UTC.
Position N 39°03' W 009°50'.

Length 113 m; draft 8.2 m.

Type: Ship. MMSI: 209366000.

Date/timePositionNaut miles runAvg speedWind from/ knotsBaromVisibWave heightAir tempDewpointWater temp
2016-May-25 14:33N 39°03' W 009°50'1212.2
2016-May-25 13:33N 38°50' W 009°50'1212.2
2016-May-25 12:33N 38°38' W 009°49'1211.7
2016-May-25 11:32N 38°27' W 009°46'1111.6
2016-May-25 10:33N 38°15' W 009°45'39311.8
2016-May-24 01:15N 31°46' W 010°56'22611.3
2016-May-23 05:19N 28°36' W 013°17'  
2016-May-20 01:34N 15°35' W 018°00'1311.3
2016-May-20 00:25N 15°22' W 017°59'910.7
2016-May-19 23:32N 15°13' W 017°60'10 9.0
2016-May-19 22:28N 15°03' W 017°60'11011.1
2016-May-19 12:34N 13°13' W 017°60'  
Track history (hours):
 
Tides and Currents Weather Stations Pressure Air Temp Water Temp Dewpoint Dewpoint Depression Visibility Wind Speed Wind Dir Waves Ship Positions

Szafir

Last reported at 2016-May-25 14:33 UTC. Time now 2016-May-27 02:15 UTC.
Position N 39°03' W 009°50'.

Length 113 m; draft 8.2 m.

Type: Ship. MMSI: 209366000.

Date/timePositionNaut miles runAvg speedWind from/ knotsBaromVisibWave heightAir tempDewpointWater temp
2016-May-25 14:33N 39°03' W 009°50'1212.2
2016-May-25 13:33N 38°50' W 009°50'1212.2
2016-May-25 12:33N 38°38' W 009°49'1211.7
2016-May-25 11:32N 38°27' W 009°46'1111.6
2016-May-25 10:33N 38°15' W 009°45'39311.8
2016-May-24 01:15N 31°46' W 010°56'22611.3
2016-May-23 05:19N 28°36' W 013°17'  
2016-May-20 01:34N 15°35' W 018°00'1311.3
2016-May-20 00:25N 15°22' W 017°59'910.7
2016-May-19 23:32N 15°13' W 017°60'10 9.0
2016-May-19 22:28N 15°03' W 017°60'11011.1
2016-May-19 12:34N 13°13' W 017°60'  

Dump ship's entire track history